Time;durP1;ratioP1;P1;durP2;ratioP2;P2;SDS_P1;SDS_P2;PMS_P1;PMS_P2;Temp;Humidity;BMP_temperature;BMP_pressure;BME280_temperature;BME280_humidity;BME280_pressure;Samples;Min_cycle;Max_cycle;Signal;HPM_P1;HPM_P2
2022/02/12 00:01:04;;;;;;;10.10;3.17;;;;;;;2.48;100.00;103377.97;5014367;28;20221;-68
2022/02/12 00:03:29;;;;;;;7.43;2.70;;;;;;;2.37;100.00;103375.09;5002216;28;20581;-68
2022/02/12 00:05:55;;;;;;;6.70;2.17;;;;;;;2.16;100.00;103390.31;5017539;28;20443;-68
2022/02/12 00:08:20;;;;;;;10.23;3.23;;;;;;;2.13;100.00;103381.69;4998602;28;20669;-68
2022/02/12 00:10:46;;;;;;;6.50;3.00;;;;;;;2.23;100.00;103364.38;5005103;28;20204;-68
2022/02/12 00:13:11;;;;;;;10.03;2.90;;;;;;;2.28;100.00;103366.78;5000012;28;20193;-68
2022/02/12 00:15:40;;;;;;;7.17;3.07;;;;;;;2.27;100.00;103368.56;4996552;28;20196;-68
2022/02/12 00:18:06;;;;;;;6.83;2.70;;;;;;;2.03;100.00;103337.19;5002066;28;20189;-68
2022/02/12 00:20:33;;;;;;;8.73;3.27;;;;;;;1.57;100.00;103276.09;5003642;28;20463;-68
2022/02/12 00:22:58;;;;;;;5.43;2.20;;;;;;;2.17;100.00;103367.34;5002728;28;20468;-68
2022/02/12 00:25:24;;;;;;;5.10;2.43;;;;;;;2.14;100.00;103367.50;5001017;28;20435;-68
2022/02/12 00:27:49;;;;;;;13.03;3.07;;;;;;;2.23;100.00;103365.25;5001249;28;20199;-68
2022/02/12 00:30:15;;;;;;;4.43;2.30;;;;;;;2.03;100.00;103349.56;5004096;28;20216;-68
2022/02/12 00:32:40;;;;;;;9.20;2.90;;;;;;;2.16;100.00;103305.59;4999330;28;20184;-68
2022/02/12 00:35:07;;;;;;;9.77;3.50;;;;;;;2.35;100.00;103352.28;5003830;28;20732;-68
2022/02/12 00:37:32;;;;;;;5.90;2.80;;;;;;;2.28;100.00;103319.94;5002765;28;20192;-68
2022/02/12 00:39:58;;;;;;;6.23;2.13;;;;;;;2.36;100.00;103365.41;5006986;28;20435;-68
2022/02/12 00:42:24;;;;;;;10.43;2.80;;;;;;;1.87;100.00;103293.91;4999753;28;20248;-68
2022/02/12 00:44:51;;;;;;;7.93;2.90;;;;;;;2.29;100.00;103356.09;5000585;28;20491;-68
2022/02/12 00:47:16;;;;;;;8.70;3.50;;;;;;;2.19;100.00;103320.44;4998133;28;20192;-68
2022/02/12 00:49:42;;;;;;;7.93;2.80;;;;;;;2.18;100.00;103355.81;4994683;28;20459;-68
2022/02/12 00:52:07;;;;;;;5.43;2.47;;;;;;;2.35;100.00;103339.88;4998768;28;20228;-68
2022/02/12 00:54:33;;;;;;;10.27;3.00;;;;;;;1.11;100.00;103199.16;4996559;28;20220;-68
2022/02/12 00:57:02;;;;;;;8.37;3.00;;;;;;;2.13;100.00;103344.63;4997573;28;20185;-68
2022/02/12 00:59:27;;;;;;;6.13;2.63;;;;;;;2.04;100.00;103341.53;4996588;28;20191;-68
2022/02/12 01:01:53;;;;;;;6.87;3.27;;;;;;;1.71;100.00;103304.47;5007382;22;20503;-77
2022/02/12 01:04:19;;;;;;;6.57;2.90;;;;;;;2.35;100.00;103342.53;4992347;28;20610;-78
2022/02/12 01:06:44;;;;;;;10.97;3.03;;;;;;;2.17;100.00;103335.56;4994229;28;20267;-78
2022/02/12 01:09:10;;;;;;;11.23;3.77;;;;;;;2.13;100.00;103329.56;4994220;28;20182;-77
2022/02/12 01:11:35;;;;;;;10.60;2.43;;;;;;;1.28;100.00;103221.22;4988693;28;20698;-78
2022/02/12 01:14:01;;;;;;;9.60;2.80;;;;;;;1.71;100.00;103256.00;4979244;28;20194;-77
2022/02/12 01:16:27;;;;;;;8.57;2.80;;;;;;;2.50;100.00;103330.22;4959727;28;20253;-77
2022/02/12 01:18:53;;;;;;;10.63;3.20;;;;;;;1.56;100.00;103210.03;4976201;28;20189;-78
2022/02/12 01:21:19;;;;;;;8.70;2.50;;;;;;;1.89;100.00;103268.22;4974329;28;20197;-77
2022/02/12 01:23:46;;;;;;;8.60;2.70;;;;;;;1.83;100.00;103280.94;4973525;28;20284;-78
2022/02/12 01:26:15;;;;;;;7.93;3.10;;;;;;;1.87;100.00;103256.88;4974790;28;20452;-77
2022/02/12 01:28:40;;;;;;;8.10;2.67;;;;;;;1.65;100.00;103253.66;4976528;28;20576;-78
2022/02/12 01:31:06;;;;;;;8.30;3.20;;;;;;;1.64;100.00;103260.75;4976867;28;20441;-77
2022/02/12 01:33:32;;;;;;;7.63;2.90;;;;;;;1.54;100.00;103220.69;4979674;28;20264;-77
2022/02/12 01:35:57;;;;;;;10.40;3.13;;;;;;;2.22;100.00;103333.53;4973244;28;20186;-77
2022/02/12 01:38:27;;;;;;;4.97;2.60;;;;;;;1.85;100.00;103236.72;4976534;28;20182;-77
2022/02/12 01:40:53;;;;;;;9.13;2.70;;;;;;;2.23;100.00;103322.00;4972319;28;20190;-77
2022/02/12 01:43:19;;;;;;;10.30;2.80;;;;;;;1.91;100.00;103241.66;4977317;28;20475;-78
2022/02/12 01:45:44;;;;;;;12.73;3.20;;;;;;;1.33;100.00;103180.38;4974737;28;20202;-78
2022/02/12 01:48:10;;;;;;;10.73;2.90;;;;;;;1.58;100.00;103246.03;4979017;28;20196;-78
2022/02/12 01:50:36;;;;;;;10.87;2.53;;;;;;;-0.08;100.00;102997.47;4973056;28;20496;-78
2022/02/12 01:53:02;;;;;;;11.23;3.20;;;;;;;-0.12;100.00;102998.53;4971421;28;20213;-78
2022/02/12 01:55:27;;;;;;;7.23;3.17;;;;;;;0.42;100.00;103060.03;4974668;28;20434;-78
2022/02/12 01:57:53;;;;;;;9.43;3.53;;;;;;;-0.09;100.00;102984.31;4971774;28;20190;-79
2022/02/12 02:00:19;;;;;;;13.50;3.43;;;;;;;2.20;100.00;103301.00;4974329;28;20201;-78
2022/02/12 02:02:45;;;;;;;10.43;2.70;;;;;;;1.61;100.00;103266.19;4973477;28;20209;-78
2022/02/12 02:05:12;;;;;;;9.23;2.60;;;;;;;1.78;100.00;103268.78;4972391;28;20945;-78
2022/02/12 02:07:39;;;;;;;13.57;3.77;;;;;;;2.04;100.00;103303.59;4972979;28;20182;-78
2022/02/12 02:10:05;;;;;;;6.87;3.03;;;;;;;1.86;100.00;103301.97;4974000;28;20448;-77
2022/02/12 02:12:31;;;;;;;8.07;2.63;;;;;;;-0.17;100.00;103024.28;4977646;28;20466;-77
2022/02/12 02:14:56;;;;;;;10.73;3.40;;;;;;;1.35;100.00;103212.03;4974504;28;20434;-77
2022/02/12 02:17:22;;;;;;;15.03;3.17;;;;;;;-0.23;100.00;102953.38;4976662;28;20445;-77
2022/02/12 02:19:48;;;;;;;12.23;4.10;;;;;;;0.75;100.00;103090.06;4975588;28;20193;-78
2022/02/12 02:22:16;;;;;;;9.23;3.17;;;;;;;1.75;100.00;103290.13;4973543;28;24285;-77
2022/02/12 02:24:42;;;;;;;12.33;3.40;;;;;;;1.64;100.00;103294.28;4977599;28;21213;-77
2022/02/12 02:27:13;;;;;;;9.77;4.20;;;;;;;1.68;100.00;103282.59;4974997;28;20524;-77
2022/02/12 02:29:41;;;;;;;14.90;3.60;;;;;;;1.72;100.00;103284.16;4976979;28;20441;-78
2022/02/12 02:32:08;;;;;;;12.43;3.63;;;;;;;1.08;100.00;103185.25;4974996;28;20457;-78
2022/02/12 02:34:33;;;;;;;8.37;3.10;;;;;;;1.62;100.00;103288.19;4972231;28;20448;-78
2022/02/12 02:36:59;;;;;;;16.10;3.50;;;;;;;1.55;100.00;103269.16;4973830;28;20449;-79
2022/02/12 02:39:25;;;;;;;12.00;3.17;;;;;;;-0.28;100.00;102997.59;4975766;28;20204;-78
2022/02/12 02:41:50;;;;;;;9.40;2.67;;;;;;;0.94;100.00;103178.00;4974531;28;20222;-78
2022/02/12 02:44:16;;;;;;;9.83;3.33;;;;;;;1.35;100.00;103230.53;4974399;28;20646;-78
2022/02/12 02:46:41;;;;;;;8.73;2.63;;;;;;;0.67;100.00;103132.72;4975110;28;20669;-77
2022/02/12 02:49:07;;;;;;;6.23;2.63;;;;;;;1.55;100.00;103272.66;4969850;28;20190;-78
2022/02/12 02:57:01;;;;;;;14.17;3.30;;;;;;;1.35;100.00;103230.53;4973149;28;20472;-76
2022/02/12 02:59:27;;;;;;;8.47;3.17;;;;;;;1.53;100.00;103237.50;4973814;28;20465;-77
2022/02/12 03:01:53;;;;;;;4.93;2.40;;;;;;;0.98;100.00;103163.69;4935513;28;1146919;-76
2022/02/12 03:04:20;;;;;;;9.10;3.07;;;;;;;0.76;100.00;103115.56;4977621;28;21398;-76
2022/02/12 03:06:46;;;;;;;13.87;3.83;;;;;;;1.53;100.00;103250.75;4976193;28;21181;-76
2022/02/12 03:09:12;;;;;;;9.43;3.20;;;;;;;1.50;100.00;103245.59;4972160;28;20548;-75
2022/02/12 03:11:37;;;;;;;8.23;3.23;;;;;;;1.18;100.00;103198.81;4973661;28;20474;-76
2022/02/12 03:14:03;;;;;;;7.80;3.43;;;;;;;1.65;100.00;103248.34;4971791;28;20252;-77
2022/02/12 03:16:29;;;;;;;7.93;3.13;;;;;;;1.40;100.00;103195.91;4974884;28;20440;-77
2022/02/12 03:18:55;;;;;;;10.70;3.83;;;;;;;0.86;100.00;103077.13;4970286;28;20276;-76
2022/02/12 03:21:21;;;;;;;11.20;3.80;;;;;;;1.39;100.00;103191.53;4972467;28;20193;-78
2022/02/12 03:23:46;;;;;;;11.27;3.33;;;;;;;1.20;100.00;103162.59;4976465;28;20461;-77
2022/02/12 03:26:13;;;;;;;9.40;3.00;;;;;;;1.43;100.00;103204.53;4972824;28;20190;-77
2022/02/12 03:28:39;;;;;;;13.67;3.90;;;;;;;1.51;100.00;103220.00;4977402;28;20205;-77
2022/02/12 03:31:05;;;;;;;10.63;3.53;;;;;;;1.29;100.00;103122.44;4965192;28;20824;-77
2022/02/12 03:33:31;;;;;;;15.30;3.53;;;;;;;0.36;100.00;102998.78;4964931;28;20762;-77
2022/02/12 03:35:57;;;;;;;8.27;3.20;;;;;;;1.37;100.00;103151.97;4978110;28;20918;-76
2022/02/12 03:38:27;;;;;;;10.27;2.77;;;;;;;1.43;100.00;103208.97;4979462;28;20190;-78
2022/02/12 03:41:06;;;;;;;7.93;2.70;;;;;;;1.23;100.00;103180.94;4977287;28;20212;-78
2022/02/12 03:43:36;;;;;;;8.60;3.37;;;;;;;1.64;100.00;103209.63;4976278;28;20909;-77
2022/02/12 03:46:03;;;;;;;5.80;2.90;;;;;;;0.97;100.00;103135.56;4977353;28;20433;-78
2022/02/12 03:48:29;;;;;;;12.67;3.83;;;;;;;0.57;100.00;103066.31;4979563;28;20449;-76
2022/02/12 03:50:55;;;;;;;10.37;3.60;;;;;;;0.56;100.00;103075.16;4977347;28;20461;-76
2022/02/12 03:53:22;;;;;;;8.80;3.93;;;;;;;1.32;100.00;103201.59;4975275;28;20214;-76
2022/02/12 03:55:49;;;;;;;8.23;4.00;;;;;;;1.56;100.00;103196.78;4957497;28;20457;-76
2022/02/12 03:58:18;;;;;;;8.67;3.60;;;;;;;1.23;100.00;103194.16;4976752;28;20444;-76
2022/02/12 04:00:45;;;;;;;9.13;3.57;;;;;;;1.43;100.00;103187.81;4977039;28;20445;-76
2022/02/12 04:03:11;;;;;;;9.97;3.93;;;;;;;1.31;100.00;103179.59;4957602;28;20861;-77
2022/02/12 04:05:37;;;;;;;11.80;4.13;;;;;;;0.90;100.00;103121.84;4959015;28;20884;-77
2022/02/12 04:08:04;;;;;;;9.60;4.50;;;;;;;1.20;100.00;103197.81;4959944;28;20543;-77
2022/02/12 04:10:30;;;;;;;15.40;4.83;;;;;;;1.23;100.00;103186.22;4964756;28;20575;-79
2022/02/12 04:12:55;;;;;;;8.17;3.57;;;;;;;0.65;100.00;103103.75;4978019;28;20480;-78
2022/02/12 04:15:22;;;;;;;15.50;4.67;;;;;;;1.20;100.00;103146.72;4978962;28;20445;-77
2022/02/12 04:17:49;;;;;;;9.93;3.70;;;;;;;0.83;100.00;103043.81;4978417;28;20198;-78
2022/02/12 04:20:17;;;;;;;12.23;4.20;;;;;;;1.42;100.00;103172.88;4979964;28;20563;-77
2022/02/12 04:22:43;;;;;;;11.80;4.23;;;;;;;1.11;100.00;103096.06;4978055;28;20471;-77
2022/02/12 04:25:12;;;;;;;11.80;4.13;;;;;;;1.34;100.00;103166.22;4977052;28;20472;-77
2022/02/12 04:27:37;;;;;;;11.03;3.30;;;;;;;1.18;100.00;103161.81;4980726;28;20445;-77
2022/02/12 04:30:05;;;;;;;9.10;3.70;;;;;;;0.95;100.00;103100.44;4975485;28;20495;-76
2022/02/12 04:32:30;;;;;;;12.10;4.23;;;;;;;1.20;100.00;103107.06;4961130;28;20212;-78
2022/02/12 04:34:56;;;;;;;13.13;4.33;;;;;;;1.36;100.00;103158.22;4959625;28;20816;-77
2022/02/12 04:37:23;;;;;;;13.20;3.40;;;;;;;1.31;100.00;103147.03;4976800;28;20193;-78
2022/02/12 04:39:49;;;;;;;10.53;3.50;;;;;;;1.09;100.00;103110.28;4977489;28;20454;-78
2022/02/12 04:42:16;;;;;;;10.33;3.87;;;;;;;1.37;100.00;103140.56;4966254;28;20472;-79
2022/02/12 04:44:44;;;;;;;13.57;4.50;;;;;;;0.97;100.00;103110.94;4976514;28;20835;-78
2022/02/12 04:47:10;;;;;;;11.87;3.90;;;;;;;1.16;100.00;103095.81;4977847;28;20451;-77
2022/02/12 04:49:37;;;;;;;8.97;3.33;;;;;;;0.75;100.00;103058.34;4975597;28;20441;-77
2022/02/12 04:52:04;;;;;;;10.17;3.20;;;;;;;1.10;100.00;103077.66;4976026;28;20202;-77
2022/02/12 04:54:30;;;;;;;13.03;4.53;;;;;;;1.05;100.00;103129.91;4960492;28;20467;-78
2022/02/12 04:56:56;;;;;;;9.30;3.53;;;;;;;1.35;100.00;103125.59;4977855;28;20448;-78
2022/02/12 04:59:22;;;;;;;8.20;3.20;;;;;;;1.06;100.00;103098.09;4978441;28;20453;-78
2022/02/12 05:01:50;;;;;;;13.77;4.00;;;;;;;0.44;100.00;102965.75;4966536;28;20947;-80
2022/02/12 05:04:16;;;;;;;15.40;4.10;;;;;;;1.26;100.00;103091.72;4961560;28;21233;-79
2022/02/12 05:06:42;;;;;;;13.67;4.93;;;;;;;0.95;100.00;103078.44;4963635;28;20463;-83
2022/02/12 05:09:08;;;;;;;12.63;3.40;;;;;;;0.62;100.00;102998.25;4960783;28;20441;-78
2022/02/12 05:11:33;;;;;;;10.00;3.20;;;;;;;1.64;100.00;103117.03;4980032;28;20201;-79
2022/02/12 05:13:59;;;;;;;12.40;3.43;;;;;;;-0.31;100.00;102855.34;4955355;28;20674;-77
2022/02/12 05:16:24;;;;;;;13.90;3.50;;;;;;;1.47;100.00;103108.22;4978000;28;20213;-79
2022/02/12 05:18:50;;;;;;;10.13;3.40;;;;;;;0.87;100.00;103039.25;4977098;28;20182;-78
2022/02/12 05:21:16;;;;;;;13.43;3.57;;;;;;;0.85;100.00;103031.38;4975084;28;20347;-77
2022/02/12 05:23:44;;;;;;;12.30;3.10;;;;;;;1.04;100.00;103014.53;4977829;28;20205;-77
2022/02/12 05:26:10;;;;;;;7.57;3.50;;;;;;;0.62;100.00;102989.47;4958122;28;21042;-78
2022/02/12 05:28:36;;;;;;;9.73;3.57;;;;;;;1.31;100.00;103081.75;4974163;28;20452;-79
2022/02/12 05:31:02;;;;;;;7.63;3.10;;;;;;;1.19;100.00;103049.88;4977851;28;20448;-77
2022/02/12 05:33:27;;;;;;;9.37;3.00;;;;;;;0.58;100.00;102950.94;4976701;28;20210;-79
2022/02/12 05:35:53;;;;;;;11.73;3.00;;;;;;;1.38;100.00;103079.63;4977265;28;20193;-79
2022/02/12 05:38:19;;;;;;;9.73;3.40;;;;;;;-0.51;100.00;102764.06;4979073;28;20560;-77
2022/02/12 05:40:45;;;;;;;6.70;2.70;;;;;;;-0.39;100.00;102795.06;4978027;28;20538;-76
2022/02/12 05:43:11;;;;;;;11.60;4.10;;;;;;;0.75;100.00;102929.75;4978223;28;20206;-79
2022/02/12 05:45:36;;;;;;;8.87;3.40;;;;;;;0.55;100.00;102909.75;4978642;28;20202;-78
2022/02/12 05:48:02;;;;;;;9.90;3.30;;;;;;;1.39;100.00;103065.50;4976527;28;20459;-79
2022/02/12 05:50:29;;;;;;;7.83;2.77;;;;;;;1.49;100.00;103064.03;4977074;28;20742;-82
2022/02/12 05:52:56;;;;;;;13.40;4.23;;;;;;;1.57;100.00;103066.25;4977098;28;20457;-81
2022/02/12 05:55:23;;;;;;;11.40;2.90;;;;;;;1.13;100.00;103032.56;4976729;28;20755;-85
2022/02/12 05:57:48;;;;;;;6.50;2.50;;;;;;;1.53;100.00;103056.78;4977375;28;20437;-83
2022/02/12 06:00:14;;;;;;;11.00;3.57;;;;;;;1.63;100.00;103070.34;4974799;28;20452;-85
2022/02/12 06:02:40;;;;;;;14.00;3.20;;;;;;;0.47;100.00;102884.69;4960180;28;20209;-79
2022/02/12 06:05:06;;;;;;;11.73;3.57;;;;;;;1.15;100.00;102987.50;4976847;28;20519;-82
2022/02/12 06:07:32;;;;;;;10.77;3.10;;;;;;;1.53;100.00;103054.13;4958239;28;25087;-80
2022/02/12 06:09:57;;;;;;;9.87;3.03;;;;;;;1.02;100.00;102961.75;4975452;28;20485;-84
2022/02/12 06:12:22;;;;;;;20.00;4.13;;;;;;;0.86;100.00;102931.81;4978413;28;20217;-81
2022/02/12 06:14:48;;;;;;;12.20;3.03;;;;;;;1.17;100.00;102968.00;4978695;28;20454;-81
2022/02/12 06:17:14;;;;;;;21.33;4.43;;;;;;;1.35;100.00;102993.38;4979652;28;20194;-81
2022/02/12 06:19:40;;;;;;;11.10;3.93;;;;;;;1.20;100.00;102957.25;4972831;28;20198;-78
2022/02/12 06:22:05;;;;;;;8.03;3.03;;;;;;;1.67;100.00;103040.13;4975178;28;20202;-78
2022/02/12 06:24:31;;;;;;;12.70;3.97;;;;;;;0.82;100.00;102935.59;4961052;28;20453;-78
2022/02/12 06:26:57;;;;;;;14.17;3.80;;;;;;;0.96;100.00;102908.41;4978487;28;20264;-78
2022/02/12 06:29:26;;;;;;;12.27;3.77;;;;;;;1.16;100.00;102994.50;4962905;28;20190;-79
2022/02/12 06:31:52;;;;;;;11.37;3.67;;;;;;;-0.25;100.00;102750.38;4980720;28;20483;-79
2022/02/12 06:34:18;;;;;;;13.23;3.20;;;;;;;0.76;100.00;102928.00;4973960;28;20441;-78
2022/02/12 06:36:44;;;;;;;10.67;3.77;;;;;;;0.33;100.00;102833.47;4978304;28;20189;-79
2022/02/12 06:39:10;;;;;;;14.47;3.90;;;;;;;0.93;100.00;102954.34;4976030;28;20462;-82
2022/02/12 06:41:35;;;;;;;12.40;3.77;;;;;;;1.27;100.00;102998.28;4962297;28;20604;-82
2022/02/12 06:44:01;;;;;;;11.07;3.23;;;;;;;0.84;100.00;102913.44;4974392;28;20206;-81
2022/02/12 06:46:27;;;;;;;7.10;3.40;;;;;;;1.49;100.00;103023.50;4976428;28;20186;-78
2022/02/12 06:48:52;;;;;;;10.40;3.77;;;;;;;1.12;100.00;102968.22;4970855;28;20444;-80
2022/02/12 06:51:18;;;;;;;11.57;3.77;;;;;;;1.46;100.00;103034.25;4952632;28;20674;-78
2022/02/12 06:53:44;;;;;;;14.70;4.10;;;;;;;1.45;100.00;103022.84;4972963;28;20275;-79
2022/02/12 06:56:10;;;;;;;12.00;4.27;;;;;;;0.02;100.00;102784.13;4970764;28;20205;-81
2022/02/12 06:58:36;;;;;;;8.77;3.43;;;;;;;0.09;100.00;102793.44;4971583;28;20464;-83
2022/02/12 07:01:01;;;;;;;16.60;4.60;;;;;;;1.62;100.00;103011.31;4978264;28;20868;-83
2022/02/12 07:03:27;;;;;;;14.00;4.37;;;;;;;1.24;100.00;102953.47;4987898;22;20233;-71
2022/02/12 07:05:53;;;;;;;12.30;4.33;;;;;;;1.38;100.00;102989.72;4961829;28;20190;-71
2022/02/12 07:08:18;;;;;;;11.70;4.77;;;;;;;1.20;100.00;102948.47;4952896;28;20787;-74
2022/02/12 07:10:44;;;;;;;10.07;4.43;;;;;;;1.34;100.00;102991.69;4958131;28;20279;-74
2022/02/12 07:13:11;;;;;;;17.50;5.00;;;;;;;1.22;100.00;102963.31;4960803;28;20537;-74
2022/02/12 07:15:37;;;;;;;11.43;3.97;;;;;;;1.38;100.00;102991.53;4960572;28;20198;-73
2022/02/12 07:18:03;;;;;;;12.60;4.70;;;;;;;1.40;100.00;102984.38;4961627;28;20952;-74
2022/02/12 07:20:29;;;;;;;8.30;4.20;;;;;;;1.23;100.00;102945.66;4966093;28;20449;-73
2022/02/12 07:22:55;;;;;;;11.60;4.03;;;;;;;1.02;100.00;102892.22;4964801;28;20249;-73
2022/02/12 07:25:21;;;;;;;16.23;4.53;;;;;;;0.37;100.00;102813.88;4959659;28;20273;-73
2022/02/12 07:27:47;;;;;;;11.30;4.73;;;;;;;1.05;100.00;102886.75;4962464;28;20831;-73
2022/02/12 07:30:15;;;;;;;12.30;5.00;;;;;;;0.02;100.00;102731.34;4961573;28;20233;-72
2022/02/12 07:32:42;;;;;;;13.30;5.00;;;;;;;0.71;100.00;102842.88;4965422;28;20472;-72
2022/02/12 07:35:10;;;;;;;13.53;4.47;;;;;;;1.02;100.00;102884.28;4961820;28;20441;-72
2022/02/12 07:37:38;;;;;;;15.23;4.70;;;;;;;1.19;100.00;102913.25;4966170;28;20532;-74
2022/02/12 07:40:05;;;;;;;11.70;4.40;;;;;;;1.46;100.00;102991.94;4963633;28;21077;-71
2022/02/12 07:42:30;;;;;;;11.20;4.93;;;;;;;1.60;100.00;102983.25;4961947;28;20476;-71
2022/02/12 07:44:56;;;;;;;12.57;4.90;;;;;;;0.86;100.00;102885.13;4965877;28;20441;-72
2022/02/12 07:47:22;;;;;;;13.17;4.97;;;;;;;1.05;100.00;102889.38;4958485;28;20561;-71
2022/02/12 07:49:48;;;;;;;12.10;4.83;;;;;;;0.95;100.00;102867.91;4966267;28;20194;-71
2022/02/12 07:52:13;;;;;;;16.90;5.73;;;;;;;0.99;100.00;102853.59;4962910;28;20999;-72
2022/02/12 07:54:39;;;;;;;11.43;4.90;;;;;;;1.19;100.00;102913.25;4954846;28;20938;-72
2022/02/12 07:57:04;;;;;;;11.63;4.90;;;;;;;1.53;100.00;102972.13;4952824;28;20193;-71
2022/02/12 07:59:30;;;;;;;14.33;4.97;;;;;;;-0.36;100.00;102667.50;4958865;28;20178;-72
2022/02/12 08:01:55;;;;;;;12.60;4.53;;;;;;;1.07;100.00;102847.84;4966072;28;20555;-72
2022/02/12 08:04:21;;;;;;;13.60;4.70;;;;;;;0.84;100.00;102809.50;4955077;28;20217;-71
2022/02/12 08:09:33;;;;;;;12.87;4.43;;;;;;;1.63;100.00;102917.78;4958340;28;20708;-72
2022/02/12 08:12:13;;;;;;;15.97;5.90;;;;;;;1.75;100.00;102934.72;4958839;28;20794;-72
2022/02/12 08:14:47;;;;;;;11.07;5.67;;;;;;;1.16;100.00;102857.03;4954549;28;20465;-72
2022/02/12 08:17:17;;;;;;;22.77;7.07;;;;;;;0.98;100.00;102825.44;4962250;28;20429;-72
2022/02/12 08:19:47;;;;;;;10.87;5.07;;;;;;;1.78;100.00;102947.78;4962022;28;20524;-71
2022/02/12 08:22:14;;;;;;;13.60;5.40;;;;;;;1.94;100.00;102963.59;4958902;28;21220;-71
2022/02/12 08:24:40;;;;;;;14.27;5.13;;;;;;;2.10;100.00;102968.84;4956734;28;20469;-72
2022/02/12 08:27:09;;;;;;;12.50;5.53;;;;;;;2.12;100.00;102970.47;4970345;28;22019;-71
2022/02/12 08:29:35;;;;;;;12.33;5.57;;;;;;;1.44;100.00;102872.16;4955020;28;20476;-73
2022/02/12 08:32:01;;;;;;;10.10;4.37;;;;;;;1.98;100.00;102906.91;4971912;28;21090;-69
2022/02/12 08:34:28;;;;;;;8.93;5.00;;;;;;;2.08;100.00;102987.44;4958047;28;20211;-71
2022/02/12 08:36:54;;;;;;;14.93;5.20;;;;;;;1.57;100.00;102910.19;4951724;28;20187;-72
2022/02/12 08:39:20;;;;;;;16.57;6.07;;;;;;;2.04;100.00;102964.75;4959600;28;20994;-71
2022/02/12 08:41:46;;;;;;;15.27;5.47;;;;;;;2.19;100.00;102960.34;4960405;28;20474;-73
2022/02/12 08:44:12;;;;;;;12.93;6.00;;;;;;;2.07;100.00;102975.16;4961843;28;20485;-71
2022/02/12 08:46:37;;;;;;;19.03;6.07;;;;;;;1.76;100.00;102891.44;4960659;28;20541;-71
2022/02/12 08:49:03;;;;;;;13.57;5.33;;;;;;;1.71;100.00;102881.13;4959479;28;20193;-71
2022/02/12 08:51:29;;;;;;;17.23;5.93;;;;;;;1.79;100.00;102886.84;4975046;28;20241;-72
2022/02/12 08:53:55;;;;;;;9.40;4.20;;;;;;;2.14;100.00;102910.34;4962276;28;20203;-71
2022/02/12 08:56:24;;;;;;;16.23;5.67;;;;;;;2.37;100.00;102943.34;4956179;28;20967;-72
2022/02/12 08:58:50;;;;;;;13.10;5.40;;;;;;;2.33;100.00;102938.34;4971383;28;20195;-72
2022/02/12 09:01:16;;;;;;;12.87;5.50;;;;;;;2.15;100.00;102903.25;4958669;28;20446;-73
2022/02/12 09:03:42;;;;;;;12.70;5.70;;;;;;;1.89;100.00;102836.84;4956372;28;20508;-71
2022/02/12 09:06:08;;;;;;;16.47;6.40;;;;;;;2.06;100.00;102862.28;4954088;28;20449;-72
2022/02/12 09:08:35;;;;;;;16.43;6.27;;;;;;;2.31;100.00;102881.94;4955609;28;20496;-71
2022/02/12 09:11:00;;;;;;;13.90;6.80;;;;;;;1.92;100.00;102814.63;4955980;28;20274;-71
2022/02/12 09:13:26;;;;;;;11.35;5.25;;;;;;;2.14;100.00;102861.81;4958998;28;20561;-72
2022/02/12 09:15:51;;;;;;;15.13;5.20;;;;;;;2.04;100.00;102835.06;4954168;28;20230;-72
2022/02/12 09:18:17;;;;;;;15.57;5.90;;;;;;;2.53;100.00;102919.41;4953074;28;20639;-70
2022/02/12 09:20:42;;;;;;;12.30;4.37;;;;;;;2.36;100.00;102871.94;4953165;28;20190;-70
2022/02/12 09:23:08;;;;;;;12.70;5.05;;;;;;;2.01;100.00;102838.72;4948788;28;20871;-71
2022/02/12 09:25:33;;;;;;;11.57;4.90;;;;;;;2.41;100.00;102873.34;4947732;28;20349;-74
2022/02/12 09:28:00;;;;;;;16.90;6.45;;;;;;;2.62;100.00;102891.50;4956234;28;20214;-73
2022/02/12 09:30:26;;;;;;;12.67;5.10;;;;;;;1.75;100.00;102757.44;4959689;28;20240;-74
2022/02/12 09:32:53;;;;;;;20.23;5.27;;;;;;;1.56;100.00;102724.19;4956314;28;20520;-71
2022/02/12 09:35:19;;;;;;;13.97;5.43;;;;;;;2.72;100.00;102925.28;4958915;28;20451;-72
2022/02/12 09:37:45;;;;;;;22.50;5.03;;;;;;;2.48;100.00;102848.16;4954279;28;20807;-71
2022/02/12 09:40:14;;;;;;;13.77;4.47;;;;;;;2.56;100.00;102875.97;4958958;28;20536;-71
2022/02/12 09:42:40;;;;;;;9.60;4.00;;;;;;;2.35;100.00;102822.56;4971882;28;21011;-70
2022/02/12 09:45:06;;;;;;;16.67;4.57;;;;;;;2.76;100.00;102887.97;4952322;28;20445;-70
2022/02/12 09:47:48;;;;;;;10.37;4.37;;;;;;;2.80;100.00;102887.66;5026173;27;22373;-72
2022/02/12 09:50:22;;;;;;;17.20;4.67;;;;;;;2.86;100.00;102881.97;5008971;28;20970;-72
2022/02/12 09:52:51;;;;;;;8.50;4.60;;;;;;;2.38;100.00;102787.94;5010531;28;20482;-71
2022/02/12 09:55:17;;;;;;;14.10;4.67;;;;;;;2.96;100.00;102876.94;5012003;28;20431;-70
2022/02/12 09:57:43;;;;;;;14.13;4.90;;;;;;;2.51;100.00;102764.16;5011481;28;20435;-71
2022/02/12 10:00:11;;;;;;;16.73;4.33;;;;;;;3.13;100.00;102867.91;4992469;28;20580;-71
2022/02/12 10:02:37;;;;;;;13.30;5.03;;;;;;;2.98;100.00;102799.94;4997884;28;20180;-69
2022/02/12 10:05:28;;;;;;;19.97;5.23;;;;;;;3.22;100.00;102858.50;5011428;28;20510;-71
2022/02/12 10:08:03;;;;;;;13.00;4.57;;;;;;;3.23;100.00;102857.53;4985228;28;20443;-69
2022/02/12 10:10:32;;;;;;;11.47;4.63;;;;;;;2.84;100.00;102798.22;5019817;28;20434;-70
2022/02/12 10:13:16;;;;;;;16.03;5.10;;;;;;;3.30;100.00;102853.53;5013458;28;20470;-71
2022/02/12 10:15:44;;;;;;;11.57;4.70;;;;;;;3.24;100.00;102835.34;5010459;28;20444;-70
2022/02/12 10:18:10;;;;;;;11.30;5.87;;;;;;;3.37;100.00;102834.44;5005637;28;20427;-70
2022/02/12 10:20:38;;;;;;;10.83;4.73;;;;;;;3.39;100.00;102832.53;4997766;28;21318;-69
2022/02/12 10:23:06;;;;;;;15.03;5.30;;;;;;;3.28;100.00;102829.75;5001966;28;20550;-70
2022/02/12 10:25:31;;;;;;;20.50;4.93;;;;;;;3.39;100.00;102829.88;5004782;28;20464;-70
2022/02/12 10:27:58;;;;;;;19.03;5.00;;;;;;;3.17;100.00;102779.22;5010152;28;20454;-70
2022/02/12 10:30:27;;;;;;;14.50;5.43;;;;;;;3.55;100.00;102820.88;5008136;28;20176;-70
2022/02/12 10:33:04;;;;;;;11.83;4.73;;;;;;;3.70;100.00;102829.59;5007143;28;20553;-70
2022/02/12 10:35:30;;;;;;;13.20;5.07;;;;;;;3.60;100.00;102808.16;5007911;28;20469;-70
2022/02/12 10:38:02;;;;;;;13.73;4.53;;;;;;;3.74;100.00;102817.84;5015295;28;20431;-70
2022/02/12 10:40:28;;;;;;;20.93;4.10;;;;;;;3.75;100.00;102793.81;5018545;28;20234;-70
2022/02/12 10:42:55;;;;;;;19.00;6.00;;;;;;;2.96;100.00;102664.88;5016061;28;20983;-70
2022/02/12 10:45:22;;;;;;;15.70;4.57;;;;;;;3.91;100.00;102816.66;5016861;28;20439;-70
2022/02/12 10:47:49;;;;;;;11.40;4.23;;;;;;;3.88;100.00;102792.97;5019422;28;20597;-70
2022/02/12 10:50:16;;;;;;;15.70;4.73;;;;;;;4.11;100.00;102800.19;5020386;28;20474;-71
2022/02/12 10:52:53;;;;;;;17.87;4.90;;;;;;;3.61;100.00;102709.00;5018790;28;20495;-70
2022/02/12 10:55:31;;;;;;;11.80;3.70;;;;;;;4.32;100.00;102805.78;5020183;28;20489;-70
2022/02/12 10:58:06;;;;;;;12.03;4.53;;;;;;;4.43;100.00;102799.69;5010399;28;20550;-70
2022/02/12 11:00:34;;;;;;;13.17;4.13;;;;;;;4.34;100.00;102787.94;5005808;28;20439;-70
2022/02/12 11:03:01;;;;;;;15.30;4.33;;;;;;;4.19;100.00;102751.81;5004310;28;20459;-70
2022/02/12 11:05:28;;;;;;;15.10;4.63;;;;;;;4.38;100.00;102772.59;5002789;28;21068;-70
2022/02/12 11:07:54;;;;;;;18.43;4.63;;;;;;;4.61;100.00;102781.56;5007918;28;20447;-70
2022/02/12 11:10:21;;;;;;;12.47;4.40;;;;;;;4.82;100.00;102763.16;5007183;28;20429;-71
2022/02/12 11:12:49;;;;;;;16.87;5.03;;;;;;;3.88;100.00;102662.88;5008647;28;20455;-70
2022/02/12 11:15:15;;;;;;;11.33;4.10;;;;;;;4.53;100.00;102771.47;5022795;28;20531;-71
2022/02/12 11:17:42;;;;;;;8.90;3.77;;;;;;;4.78;100.00;102751.09;5006893;28;20514;-71
2022/02/12 11:20:11;;;;;;;13.47;3.73;;;;;;;4.17;100.00;102653.66;5007251;28;20432;-70
2022/02/12 11:22:40;;;;;;;13.60;3.83;;;;;;;4.67;100.00;102719.97;5004927;28;20432;-69
2022/02/12 11:25:35;;;;;;;10.10;3.37;;;;;;;4.76;100.00;102744.06;5005549;28;20450;-71